Terminal Aerodrome Forecast
Issued by NWS Memphis, TN

Home | Current Version | Previous Version | Text Only | Print | Product List | Glossary On
Versions: 1 2 3 4 5 6 7 8 9 10 11 12 13 14 15
027
FTUS44 KMEG 220530
TAFJBR
TAF
KJBR 220530Z 2206/2306 16013G21KT P6SM SCT035 BKN150
     FM220900 18013G20KT P6SM VCSH BKN035 OVC120
     FM221100 20010G16KT 6SM -SHRA BR VCTS BKN015CB OVC025
      TEMPO 2212/2215 27012G18KT -RA OVC012
     FM221700 29009KT P6SM VCSH SCT025 BKN100
     FM222300 34007KT P6SM BKN020
     FM230300 36005KT P6SM FEW020 BKN120=

USA.gov is the U.S. government's official web portal to all federal, state and local government web resources and services.